• Join FlightAware (Why Join?)
  • Login
  • US Flag 
Rudolph Flight #1: Arrived! 
04:16PM EST


 

Airport Tracker/Info


-or-


 

Live Flight TrackerFlight Track Log ✈ BAW1385 ✈ 16-Aug-2013 ✈ EGCC / MAN - EGLL / LHR

Flight Track Log - Related Links

Times and Time Zones

All times are in EDT time to prevent confusion due to time zone crossing. See the BAW1385 flight status page for this flight to view local times or setup timezone preferences in your user account.

Time Position Orientation Groundspeed Altitude Reporting Facility
EDT Latitude Longitude Course Direction KTS MPH feet Rate Location/Type
02:45AM 53.2819 -2.2021 149° Southeast  Level Estimated
02:46AM 53.2101 -2.1295 149° Southeast  Level Estimated
02:47AM 53.1382 -2.0571 149° Southeast  Level Estimated
02:48AM 53.0662 -1.9850 149° Southeast  Level Estimated
02:49AM 52.9943 -1.9132 149° Southeast  Level Estimated
02:50AM 52.9222 -1.8415 149° Southeast  Level Estimated
02:51AM 52.8502 -1.7701 149° Southeast  Level Estimated
02:52AM 52.7780 -1.6990 149° Southeast  Level Estimated
02:53AM 52.7059 -1.6281 149° Southeast  Level Estimated
02:54AM 52.6337 -1.5574 149° Southeast  Level Estimated
02:55AM 52.5614 -1.4869 149° Southeast  Level Estimated
02:56AM 52.4892 -1.4167 149° Southeast  Level Estimated
02:57AM 52.4168 -1.3467 149° Southeast  Level Estimated
02:58AM 52.3445 -1.2769 149° Southeast  Level Estimated
02:59AM 52.2721 -1.2074 150° Southeast  Level Estimated
03:00AM 52.1996 -1.1381 150° Southeast  Level Estimated
03:01AM 52.1271 -1.0690 150° Southeast  Level Estimated
03:02AM 52.0546 -1.0001 150° Southeast  Level Estimated
03:03AM 52.0237 -0.9709 150° Southeast  Level Estimated
03:04AM 51.9927 -0.9416 150° Southeast  Level Estimated
03:05AM 51.9618 -0.9124 150° Southeast  Level Estimated
03:06AM 51.9308 -0.8833 150° Southeast  Level Estimated
03:07AM 51.8999 -0.8541 150° Southeast  Level Estimated
03:08AM 51.8689 -0.8251 150° Southeast  Level Estimated
03:09AM 51.8380 -0.7960 150° Southeast  Level Estimated
03:10AM 51.8070 -0.7670 150° Southeast  Level Estimated
03:11AM 51.7760 -0.7381 150° Southeast  Level Estimated
03:12AM 51.7450 -0.7092 150° Southeast  Level Estimated
03:13AM 51.7140 -0.6803 150° Southeast  Level Estimated
03:14AM 51.6830 -0.6514 150° Southeast  Level Estimated
03:15AM 51.6520 -0.6226 150° Southeast  Level Estimated
03:16AM 51.6210 -0.5939 150° Southeast  Level Estimated
03:17AM 51.5900 -0.5651 150° Southeast  Level Estimated
03:18AM 51.5589 -0.5364 150° Southeast  Level Estimated
03:19AM 51.5279 -0.5078 150° Southeast  Level Estimated
03:20AM 51.4968 -0.4792 150° Southeast  Level Estimated
03:21AM 51.4775 -0.4614 150° Southeast  Level Estimated
03:22AM 51.4775 -0.4614 90° East  Level Estimated
03:23AM 51.4775 -0.4614 90° East  Level Estimated
03:24AM 51.4775 -0.4614 90° East  Level Estimated
03:25AM 51.4775 -0.4614 90° East  Level Estimated
03:26AM 51.4775 -0.4614 90° East  Level Estimated
03:27AM 51.4775 -0.4614 90° East  Level Estimated
03:28AM 51.4775 -0.4614 90° East  Level Estimated
03:29AM 51.4775 -0.4614 90° East  Level Estimated
03:30AM 51.4775 -0.4614 90° East  Level Estimated
03:31AM 51.4775 -0.4614 90° East  Level Estimated
03:32AM 51.4775 -0.4614 90° East  Level Estimated
03:33AM 51.4775 -0.4614 90° East  Level Estimated
03:34AM 51.4775 -0.4614 90° East  Level Estimated
03:35AM 51.4775 -0.4614 90° East  Level Estimated
03:36AM 51.4775 -0.4614 90° East  Level Estimated
03:37AM 51.4775 -0.4614 90° East  Level Estimated
03:38AM 51.4775 -0.4614 90° East  Level Estimated
03:39AM 51.4775 -0.4614 90° East  Level Estimated